CYBG

CFB Bagotville Airport

Bagotville, Quebec, Canada
TAF CYBG 201730Z 2018/2118 28010G20KT P6SM FEW015 BKN030 TEMPO 2018/2021 P6SM -SHRA SCT015 OVC030 BECMG 2022/2024 29008KT FM210000 29008KT P6SM BKN040 FM210600 29005KT P6SM SCT025 FM211500 29008G18KT P6SM FEW025 BKN140 RMK NXT FCST BY 210000Z
Issued Valid From Valid To
Apr-20 @ 17:30 UTC
(an hour ago)
Apr-20 @ 18:00 UTC
(38 minutes ago)
Apr-21 @ 18:00 UTC
(in 23 hours)
Apr-20 @ 18:00 to Apr-20 @ 22:00
TAF CYBG 201730Z 2018/2118 28010G20KT P6SM FEW015 BKN030
Wind Visibility Clouds
280° at 10 knots
 Gusting to 20 knots
Greater than 6 miles
  • Few at 1,500' AGL
  • Broken at 3,000' AGL
Temporary Apr-20 @ 18:00 to Apr-20 @ 21:00
TEMPO 2018/2021 P6SM -SHRA SCT015 OVC030
Visibility Clouds Conditions
Greater than 6 miles
  • Scattered at 1,500' AGL
  • Overcast at 3,000' AGL
  • Light Rain
Becoming Apr-20 @ 22:00 to Apr-21 @ 00:00
BECMG 2022/2024 29008KT
Wind Visibility Clouds
290° at 8 knots Greater than 6 miles
  • Few at 1,500' AGL
  • Broken at 3,000' AGL
From Apr-21 @ 00:00 to Apr-21 @ 06:00
FM210000 29008KT P6SM BKN040
Wind Visibility Clouds
290° at 8 knots Greater than 6 miles
  • Broken at 4,000' AGL
From Apr-21 @ 06:00 to Apr-21 @ 15:00
FM210600 29005KT P6SM SCT025
Wind Visibility Clouds
290° at 5 knots Greater than 6 miles
  • Scattered at 2,500' AGL
From Apr-21 @ 15:00 to Apr-21 @ 18:00
FM211500 29008G18KT P6SM FEW025 BKN140 RMK NXT FCST BY 210000Z
Wind Visibility Clouds
290° at 8 knots
 Gusting to 18 knots
Greater than 6 miles
  • Few at 2,500' AGL
  • Broken at 14,000' AGL
TAF CYBG 201730Z 2018/2118 28010G20KT P6SM FEW015 BKN030 TEMPO 2018/2021 P6SM -SHRA SCT015 OVC030 BECMG 2022/2024 29008KT FM210000 29008KT P6SM BKN040 FM210600 29005KT P6SM SCT025 FM211500 29008G18KT P6SM FEW025 BKN140 RMK NXT FCST BY 210000Z
Issued Apr-20 @ 17:30 UTC
(an hour ago)
Valid From Apr-20 @ 18:00 UTC
(38 minutes ago)
Valid To Apr-21 @ 18:00 UTC
(in 23 hours)
Apr-20 @ 18:00 - Apr-20 @ 22:00
Wind Visibility
280° at 10 knots
 Gusting to 20 knots
Greater than 6 miles
Clouds
  • Few at 1,500' AGL
  • Broken at 3,000' AGL
Temporary Apr-20 @ 18:00 - Apr-20 @ 21:00
Clouds
  • Scattered at 1,500' AGL
  • Overcast at 3,000' AGL
Conditions
  • Light Rain
Becoming Apr-20 @ 22:00 - Apr-21 @ 00:00
Wind Visibility
290° at 8 knots Greater than 6 miles
Clouds
  • Few at 1,500' AGL
  • Broken at 3,000' AGL
From Apr-21 @ 00:00 - Apr-21 @ 06:00
Wind Visibility
290° at 8 knots Greater than 6 miles
Clouds
  • Broken at 4,000' AGL
From Apr-21 @ 06:00 - Apr-21 @ 15:00
Wind Visibility
290° at 5 knots Greater than 6 miles
Clouds
  • Scattered at 2,500' AGL
From Apr-21 @ 15:00 - Apr-21 @ 18:00
Wind Visibility
290° at 8 knots
 Gusting to 18 knots
Greater than 6 miles
Clouds
  • Few at 2,500' AGL
  • Broken at 14,000' AGL